Estación Meteorológica Peña el Pijo (Robertgarden) [ 09/26/18 04:19:09 CEST ]

Fecha Hora Presion(HPa) Temp (°C) Humedad % Rocio (°C) Viento ( m/s) Direccion Lluvia 1Hora(mm) Lluvia 24H(mm) LLuvia Total(mm)
2018-Sep-12 01:01:47 1016.000 13.3 88 11.3         344.98
2018-Sep-12 02:01:47 1016.000 12.8 89 11.0         344.98
2018-Sep-12 03:01:37 1015.700 12.6 90 11.0         344.98
2018-Sep-12 04:01:38 1014.800 12.5 90 10.9         344.98
2018-Sep-12 05:01:42 1015.000 12.1 90 10.5         344.98
2018-Sep-12 06:04:10 1015.000 11.9 90 10.3         344.98
2018-Sep-12 07:01:42 1015.000 11.4 91 10.0         344.98
2018-Sep-12 08:01:46 1015.100 11.3 91 9.9         344.98
2018-Sep-12 09:01:51 1015.700 12.9 92 11.6         344.98
2018-Sep-12 10:01:37 1015.500 16.9 93 15.8         344.98
2018-Sep-12 11:02:02 1015.800 23.5 83 20.5         344.98
2018-Sep-12 12:01:37 1016.000 26.6 59 17.9         344.98
2018-Sep-12 13:01:44 1015.700 26.5 59 17.9 0.5 NNE     344.98
2018-Sep-12 14:01:42 1015.500 24.8 63 17.3         344.98
2018-Sep-12 15:01:57 1015.100 25.9 53 15.6         344.98
2018-Sep-12 16:01:46 1014.300 27.4 54 17.2         344.98
2018-Sep-12 17:01:48 1014.000 27.4 50 16.1         344.98
2018-Sep-12 18:01:41 1014.000 24.6 59 16.1         344.98
2018-Sep-12 19:01:53 1013.900 26.1 56 16.6         344.98
2018-Sep-12 20:01:59 1013.900 21.8 68 15.6 0.3 N     344.98
2018-Sep-12 21:01:56 1014.300 19.4 74 14.6         344.98
2018-Sep-12 22:01:42 1015.000 18.1 79 14.4         344.98
2018-Sep-12 23:01:55 1015.300 17.1 82 14.0         344.98

Temperatura Máxima:27°    Temperatura Mínima:11°
Presión Máxima:1016.000 Hpa    Presión Mínima:1013.900 Hpa


Volver